Time;durP1;ratioP1;P1;durP2;ratioP2;P2;SDS_P1;SDS_P2;PMS_P1;PMS_P2;Temp;Humidity;BMP_temperature;BMP_pressure;BME280_temperature;BME280_humidity;BME280_pressure;Samples;Min_cycle;Max_cycle;Signal;HPM_P1;HPM_P2
2022/08/25 04:24:27;;;;;;;15.28;7.83;;;;;;;18.26;91.91;98805.37;1620228;86;27353;-60
2022/08/25 04:26:53;;;;;;;12.65;7.75;;;;;;;18.37;91.94;98806.19;1619346;87;25762;-61
2022/08/25 04:29:23;;;;;;;17.45;7.83;;;;;;;18.37;91.59;98816.70;1624026;88;25777;-60
2022/08/25 04:31:51;;;;;;;15.77;7.87;;;;;;;18.41;91.75;98813.99;1624676;88;26423;-60
2022/08/25 04:34:19;;;;;;;12.37;7.72;;;;;;;18.36;91.12;98804.59;1596536;88;25728;-60
2022/08/25 04:36:46;;;;;;;10.65;7.42;;;;;;;18.30;91.27;98809.02;1625452;88;27375;-60
2022/08/25 04:39:12;;;;;;;16.25;7.53;;;;;;;18.37;91.86;98811.73;1625379;87;25613;-60
2022/08/25 04:41:39;;;;;;;14.18;7.37;;;;;;;18.36;91.49;98809.53;1625124;88;25931;-60
2022/08/25 04:44:05;;;;;;;12.82;7.33;;;;;;;18.33;91.46;98808.87;1624984;87;25832;-60
2022/08/25 04:46:33;;;;;;;12.95;8.10;;;;;;;18.35;92.08;98809.89;1625456;88;25416;-60
2022/08/25 04:49:01;;;;;;;16.23;7.90;;;;;;;18.38;92.01;98808.59;1625074;88;27533;-60
2022/08/25 04:51:36;;;;;;;15.15;7.87;;;;;;;18.46;92.34;98808.74;1625252;88;26150;-59
2022/08/25 04:54:07;;;;;;;13.05;8.03;;;;;;;18.50;92.30;98806.27;1625180;88;25648;-59
2022/08/25 04:56:34;;;;;;;15.30;7.78;;;;;;;18.56;92.25;98810.36;1625364;88;26426;-60
2022/08/25 04:59:07;;;;;;;13.13;8.43;;;;;;;18.63;92.55;98807.52;1625402;87;25715;-60
2022/08/25 05:01:34;;;;;;;15.10;7.65;;;;;;;18.75;92.54;98812.93;1625450;88;27460;-60
2022/08/25 05:04:04;;;;;;;16.73;8.08;;;;;;;18.80;91.86;98810.45;1625300;88;25498;-60
2022/08/25 05:06:30;;;;;;;11.43;7.72;;;;;;;18.87;92.06;98813.36;1625405;87;25466;-60
2022/08/25 05:08:58;;;;;;;16.37;7.72;;;;;;;18.96;91.86;98809.53;1625103;88;25777;-59
2022/08/25 05:11:26;;;;;;;12.58;8.20;;;;;;;19.08;92.10;98808.02;1625227;87;25693;-60
2022/08/25 05:13:55;;;;;;;16.12;8.10;;;;;;;19.22;92.14;98813.05;1625400;87;27560;-60
2022/08/25 05:16:25;;;;;;;15.03;7.75;;;;;;;19.27;91.85;98814.14;1625228;88;25451;-60
2022/08/25 05:18:52;;;;;;;13.75;7.95;;;;;;;19.41;91.78;98812.21;1625314;88;25632;-61
2022/08/25 05:21:25;;;;;;;15.75;8.38;;;;;;;19.57;91.45;98808.48;1619362;87;25757;-60
2022/08/25 05:23:58;;;;;;;14.75;8.53;;;;;;;19.64;91.20;98808.62;1619959;87;25817;-60
2022/08/25 05:26:29;;;;;;;18.02;8.55;;;;;;;19.71;90.75;98807.14;1620187;87;27865;-60
2022/08/25 05:28:57;;;;;;;14.30;8.58;;;;;;;19.79;90.74;98803.28;1613601;87;26526;-61
2022/08/25 05:31:25;;;;;;;14.70;8.80;;;;;;;19.86;91.03;98801.99;1616524;87;25782;-60
2022/08/25 05:33:53;;;;;;;14.75;8.50;;;;;;;20.01;90.48;98797.48;1612751;88;25831;-61
2022/08/25 05:36:21;;;;;;;13.20;8.15;;;;;;;20.11;90.30;98799.41;1612360;88;25732;-60
2022/08/25 05:38:48;;;;;;;22.80;8.88;;;;;;;20.22;89.89;98794.81;1614302;88;27467;-60
2022/08/25 05:41:19;;;;;;;15.72;9.15;;;;;;;20.26;90.15;98796.27;1590687;88;25803;-60
2022/08/25 05:43:47;;;;;;;14.55;9.35;;;;;;;20.40;89.59;98801.20;1612648;88;25717;-60
2022/08/25 05:46:18;;;;;;;16.73;8.83;;;;;;;20.54;88.84;98801.98;1610255;88;25797;-62
2022/08/25 05:48:45;;;;;;;19.65;9.20;;;;;;;20.64;88.72;98801.92;1612596;88;25702;-61
2022/08/25 05:51:13;;;;;;;17.90;8.60;;;;;;;20.73;88.43;98801.62;1612785;88;28174;-60
2022/08/25 05:53:43;;;;;;;16.15;9.13;;;;;;;20.78;88.34;98803.47;1613083;87;25519;-61
2022/08/25 05:56:12;;;;;;;20.60;9.80;;;;;;;20.85;88.24;98796.38;1613949;87;25491;-61
2022/08/25 05:58:40;;;;;;;17.48;9.05;;;;;;;21.00;87.79;98796.78;1611960;88;26139;-61
2022/08/25 06:03:52;;;;;;;14.93;9.25;;;;;;;21.29;87.51;98799.86;1611572;88;26055;-61
2022/08/25 06:06:23;;;;;;;13.05;8.40;;;;;;;21.48;86.01;98802.23;1613261;87;25467;-62
2022/08/25 06:08:50;;;;;;;15.23;9.05;;;;;;;21.49;86.04;98799.64;1613700;88;25515;-61
2022/08/25 06:11:18;;;;;;;17.48;8.98;;;;;;;21.61;85.29;98799.13;1613057;88;25800;-61
2022/08/25 06:13:44;;;;;;;15.13;9.38;;;;;;;21.67;85.30;98803.98;1614105;88;25670;-61
2022/08/25 06:16:11;;;;;;;17.00;8.95;;;;;;;21.84;85.33;98805.14;1614003;88;27461;-61
2022/08/25 06:18:38;;;;;;;17.57;9.00;;;;;;;21.99;84.16;98793.48;1612479;88;25754;-61
2022/08/25 06:21:11;;;;;;;17.67;10.45;;;;;;;21.92;83.90;98797.83;1613809;87;25797;-61
2022/08/25 06:23:39;;;;;;;16.20;8.50;;;;;;;22.10;85.04;98797.13;1611760;87;25744;-61
2022/08/25 06:26:06;;;;;;;15.55;9.65;;;;;;;22.23;83.36;98795.42;1613152;87;25510;-61
2022/08/25 06:28:33;;;;;;;18.65;9.20;;;;;;;22.39;82.04;98790.93;1593399;88;27440;-61
2022/08/25 06:31:02;;;;;;;16.70;9.43;;;;;;;22.48;83.03;98790.56;1608588;88;26344;-61
2022/08/25 06:33:28;;;;;;;19.32;8.40;;;;;;;22.65;83.19;98795.45;1612594;88;25476;-61
2022/08/25 06:35:56;;;;;;;16.52;7.60;;;;;;;22.87;82.17;98793.33;1610368;88;25794;-60
2022/08/25 06:38:23;;;;;;;16.35;7.45;;;;;;;22.97;81.34;98795.96;1612894;88;25499;-61
2022/08/25 06:40:53;;;;;;;17.62;7.75;;;;;;;23.03;80.88;98797.17;1611954;87;27513;-61
2022/08/25 06:43:21;;;;;;;17.87;7.40;;;;;;;23.10;81.10;98796.37;1614648;88;25831;-59
2022/08/25 06:45:48;;;;;;;13.40;6.95;;;;;;;23.17;79.85;98791.61;1613514;88;25681;-59
2022/08/25 06:48:15;;;;;;;15.90;7.28;;;;;;;23.24;78.90;98790.83;1612708;88;25542;-60
2022/08/25 06:50:43;;;;;;;16.23;7.58;;;;;;;23.35;78.33;98788.64;1614277;88;25461;-60
2022/08/25 06:53:10;;;;;;;19.17;8.03;;;;;;;23.28;77.34;98795.01;1613360;88;27679;-62
2022/08/25 06:55:36;;;;;;;19.12;7.25;;;;;;;23.21;78.64;98795.00;1612734;88;25723;-59
2022/08/25 06:58:04;;;;;;;15.78;7.05;;;;;;;23.40;79.35;98798.85;1613438;88;25446;-59
2022/08/25 07:00:31;;;;;;;14.15;7.20;;;;;;;23.56;78.79;98793.47;1615470;88;26561;-60
2022/08/25 07:03:00;;;;;;;13.70;7.28;;;;;;;23.80;76.97;98791.05;1614992;88;25733;-59
2022/08/25 07:05:28;;;;;;;17.35;7.25;;;;;;;23.85;76.66;98796.27;1613389;88;26901;-60
2022/08/25 07:07:54;;;;;;;16.30;6.95;;;;;;;23.92;76.06;98792.67;1613029;87;25876;-59
2022/08/25 07:10:21;;;;;;;19.55;6.72;;;;;;;24.01;76.33;98798.63;1620597;88;25651;-60
2022/08/25 07:12:48;;;;;;;19.62;6.83;;;;;;;24.02;75.72;98798.03;1621155;87;25917;-59
2022/08/25 07:15:15;;;;;;;14.53;6.62;;;;;;;23.92;75.59;98801.84;1611718;88;25629;-60
2022/08/25 07:17:41;;;;;;;16.67;6.67;;;;;;;23.95;75.75;98794.66;1602147;88;27503;-62
2022/08/25 07:20:09;;;;;;;14.98;7.30;;;;;;;24.05;75.14;98799.44;1601379;89;25739;-60
2022/08/25 07:22:36;;;;;;;14.85;6.62;;;;;;;24.26;76.07;98795.02;1602626;89;25779;-60
2022/08/25 07:25:04;;;;;;;16.80;6.80;;;;;;;24.61;74.36;98789.69;1602438;87;26428;-61
2022/08/25 07:27:31;;;;;;;16.35;6.47;;;;;;;24.80;74.07;98794.02;1602401;89;25442;-60
2022/08/25 07:29:58;;;;;;;15.95;6.90;;;;;;;25.04;74.80;98796.34;1602290;88;29539;-59
2022/08/25 07:32:24;;;;;;;16.85;5.97;;;;;;;25.02;72.85;98791.14;1602474;88;25519;-60
2022/08/25 07:37:38;;;;;;;16.70;6.40;;;;;;;25.56;72.81;98797.58;1602279;89;25527;-59
2022/08/25 07:40:07;;;;;;;16.27;6.90;;;;;;;25.87;73.06;98793.52;1602679;89;25522;-60
2022/08/25 07:42:34;;;;;;;13.85;6.22;;;;;;;26.11;72.32;98790.90;1593169;89;27467;-60
2022/08/25 07:45:04;;;;;;;16.50;5.92;;;;;;;26.23;71.86;98795.18;1614081;87;26245;-59
2022/08/25 07:47:30;;;;;;;13.00;6.27;;;;;;;26.39;69.97;98794.62;1613195;86;25889;-59
2022/08/25 07:49:58;;;;;;;14.47;5.67;;;;;;;26.34;68.88;98786.67;1626523;88;26137;-61
2022/08/25 07:52:24;;;;;;;20.43;5.92;;;;;;;26.29;67.96;98788.49;1615620;88;25684;-59
2022/08/25 07:54:53;;;;;;;17.73;6.03;;;;;;;26.08;68.01;98790.92;1606700;89;27472;-60
2022/08/25 07:57:21;;;;;;;16.70;5.50;;;;;;;26.11;70.08;98795.11;1606262;89;25998;-60
2022/08/25 07:59:47;;;;;;;15.25;5.53;;;;;;;26.62;70.18;98789.55;1614731;88;25755;-60
2022/08/25 08:02:14;;;;;;;16.27;6.45;;;;;;;27.10;69.16;98786.31;1628871;86;25886;-59
2022/08/25 08:04:44;;;;;;;17.40;5.47;;;;;;;27.51;67.51;98786.48;1632941;87;25740;-61
2022/08/25 08:07:09;;;;;;;14.18;5.62;;;;;;;27.80;66.54;98788.84;1631291;86;25837;-60
2022/08/25 08:09:36;;;;;;;17.12;6.45;;;;;;;27.97;66.24;98777.72;1621954;86;25684;-61
2022/08/25 08:12:05;;;;;;;19.07;5.85;;;;;;;28.03;66.18;98778.18;1610479;88;25739;-60
2022/08/25 08:14:32;;;;;;;11.95;5.37;;;;;;;28.00;65.85;98777.63;1615747;86;25773;-60
2022/08/25 08:16:59;;;;;;;16.07;5.72;;;;;;;27.91;65.37;98772.57;1611979;88;25687;-61
2022/08/25 08:19:26;;;;;;;15.70;6.17;;;;;;;27.81;63.41;98774.34;1606340;88;27526;-60
2022/08/25 08:21:53;;;;;;;13.70;5.42;;;;;;;27.79;63.99;98774.59;1606484;89;25941;-60
2022/08/25 08:24:19;;;;;;;15.55;5.53;;;;;;;27.79;64.70;98778.22;1606452;89;25764;-59
2022/08/25 08:26:46;;;;;;;20.95;6.37;;;;;;;27.82;65.10;98776.55;1606434;88;25916;-59
2022/08/25 08:29:14;;;;;;;14.78;5.62;;;;;;;27.72;64.36;98776.94;1606555;88;25719;-59
2022/08/25 08:31:40;;;;;;;18.05;5.72;;;;;;;27.66;64.62;98778.66;1610752;86;27640;-60
2022/08/25 08:34:07;;;;;;;16.70;5.75;;;;;;;27.78;64.30;98776.61;1619524;88;25689;-59
2022/08/25 08:36:34;;;;;;;19.17;6.37;;;;;;;28.08;63.58;98777.49;1619711;88;25691;-59
2022/08/25 08:39:01;;;;;;;17.23;5.83;;;;;;;28.17;62.77;98775.71;1619652;88;25733;-59
2022/08/25 08:44:34;;;;;;;;;;;;;;;28.50;61.32;98786.98;1582801;88;27513;-59
2022/08/25 08:47:27;;;;;;;17.98;5.37;;;;;;;28.63;61.42;98777.24;1606377;89;25780;-59
2022/08/25 08:50:23;;;;;;;17.23;5.50;;;;;;;28.79;60.02;98781.55;1606391;89;25723;-59
2022/08/25 08:53:10;;;;;;;18.35;5.72;;;;;;;28.87;59.77;98776.52;1610861;88;25792;-59
2022/08/25 08:56:03;;;;;;;21.50;6.28;;;;;;;29.02;60.03;98769.19;1610541;88;25823;-59
2022/08/25 08:59:13;;;;;;;16.20;6.03;;;;;;;29.50;59.51;98778.12;1612888;87;27236;-60
2022/08/25 09:01:57;;;;;;;14.78;5.30;;;;;;;29.88;58.45;98786.66;1609191;88;25805;-59
2022/08/25 09:04:36;;;;;;;15.58;5.75;;;;;;;30.16;55.83;98780.08;1611864;88;26478;-59
2022/08/25 09:07:23;;;;;;;18.57;5.97;;;;;;;29.98;55.67;98781.18;1608255;87;25741;-60
2022/08/25 09:09:50;;;;;;;17.17;5.40;;;;;;;30.16;56.29;98781.49;1614052;88;25788;-60
2022/08/25 09:12:50;;;;;;;16.73;5.12;;;;;;;30.70;55.67;98784.66;1614357;87;27446;-59
2022/08/25 09:18:49;;;;;;;15.40;5.53;;;;;;;31.56;53.22;98770.52;1613317;88;25707;-61
2022/08/25 09:21:36;;;;;;;17.10;5.12;;;;;;;31.83;53.36;98769.84;1611435;88;26622;-62
2022/08/25 09:24:23;;;;;;;18.98;5.65;;;;;;;31.98;52.25;98767.31;1611487;88;25602;-63
2022/08/25 09:27:07;;;;;;;15.63;5.33;;;;;;;32.12;53.35;98771.69;1613010;88;27663;-62
2022/08/25 09:29:57;;;;;;;19.92;5.22;;;;;;;32.36;49.79;98769.19;1608639;88;25681;-63
2022/08/25 09:32:27;;;;;;;20.52;5.25;;;;;;;31.73;49.79;98773.99;1610043;88;25709;-64
2022/08/25 09:34:55;;;;;;;19.12;5.50;;;;;;;31.44;53.04;98774.96;1610673;88;25805;-63
2022/08/25 09:37:23;;;;;;;18.32;5.58;;;;;;;31.31;51.58;98773.52;1612700;88;25823;-63
2022/08/25 09:39:50;;;;;;;23.32;5.72;;;;;;;30.96;52.60;98780.48;1606157;88;27391;-62
2022/08/25 09:42:19;;;;;;;17.42;5.33;;;;;;;30.92;53.20;98780.00;1612834;88;25602;-62
2022/08/25 09:44:47;;;;;;;19.13;5.27;;;;;;;31.09;52.67;98772.02;1614744;88;25811;-63
2022/08/25 09:47:22;;;;;;;17.27;5.35;;;;;;;31.46;53.21;98768.84;1613206;88;25859;-63
2022/08/25 09:49:59;;;;;;;22.48;5.70;;;;;;;32.07;52.28;98768.02;1607963;88;25687;-63
2022/08/25 09:52:36;;;;;;;23.40;5.60;;;;;;;32.77;50.58;98761.41;1613170;88;26203;-63
2022/08/25 09:55:17;;;;;;;19.65;5.30;;;;;;;33.24;48.71;98763.06;1612599;88;25744;-63
2022/08/25 09:57:48;;;;;;;18.45;5.70;;;;;;;32.85;47.87;98763.34;1609472;87;26607;-62
2022/08/25 10:00:32;;;;;;;22.62;5.87;;;;;;;32.53;49.70;98755.59;1604256;88;25810;-63
2022/08/25 10:03:21;;;;;;;23.38;5.67;;;;;;;32.52;48.96;98756.86;1605089;89;25660;-62
2022/08/25 10:06:01;;;;;;;18.87;5.33;;;;;;;32.98;48.18;98751.90;1605303;87;27461;-63
2022/08/25 10:08:36;;;;;;;24.67;5.65;;;;;;;33.34;46.82;98751.87;1602618;89;25731;-63
2022/08/25 10:11:14;;;;;;;17.75;5.53;;;;;;;33.21;47.97;98746.31;1605013;89;26265;-63
2022/08/25 10:13:45;;;;;;;20.15;5.05;;;;;;;33.59;48.11;98744.98;1604850;89;25744;-62
2022/08/25 10:16:31;;;;;;;18.75;5.65;;;;;;;33.25;45.96;98742.72;1605101;89;25729;-62
2022/08/25 10:19:11;;;;;;;20.45;5.17;;;;;;;33.47;47.90;98742.45;1604869;89;26006;-62
2022/08/25 10:21:41;;;;;;;22.52;5.65;;;;;;;33.21;47.10;98743.47;1604899;87;25639;-62
2022/08/25 10:24:12;;;;;;;17.25;6.05;;;;;;;33.34;47.33;98730.58;1605048;89;25497;-62
2022/08/25 10:27:10;;;;;;;16.80;5.05;;;;;;;33.55;46.35;98733.14;1604998;86;25730;-62
2022/08/25 10:30:04;;;;;;;19.95;5.65;;;;;;;33.42;45.17;98731.08;1604870;88;25725;-63
2022/08/25 10:32:51;;;;;;;19.20;5.62;;;;;;;33.11;46.14;98729.89;1605492;89;27675;-62
2022/08/25 10:35:54;;;;;;;19.77;5.67;;;;;;;33.88;46.44;98723.88;1604975;89;25765;-62
2022/08/25 10:38:51;;;;;;;23.92;5.70;;;;;;;34.35;45.25;98728.91;1605035;89;25688;-62
2022/08/25 10:41:50;;;;;;;16.37;5.45;;;;;;;34.58;44.58;98721.57;1604885;87;25948;-62
2022/08/25 10:48:04;;;;;;;22.13;5.58;;;;;;;34.28;43.39;98715.03;1604850;89;25743;-62
2022/08/25 10:50:47;;;;;;;23.10;5.47;;;;;;;33.83;43.83;98720.23;1604988;89;25644;-63
2022/08/25 10:53:47;;;;;;;17.30;4.92;;;;;;;34.00;44.48;98717.25;1604959;88;25506;-63
2022/08/25 10:56:25;;;;;;;16.90;5.60;;;;;;;34.16;43.83;98718.98;1605044;89;25900;-63
2022/08/25 10:59:05;;;;;;;16.73;5.60;;;;;;;34.84;43.97;98714.88;1604918;88;25507;-63
2022/08/25 11:01:34;;;;;;;;;;;;;;;34.94;42.29;98716.26;1607301;87;28423;-64
2022/08/25 11:04:25;;;;;;;18.87;5.50;;;;;;;34.85;41.23;98707.13;1604908;89;25539;-63
2022/08/25 11:07:12;;;;;;;14.43;5.08;;;;;;;35.14;42.20;98702.88;1605049;89;25510;-64
2022/08/25 11:09:42;;;;;;;15.48;5.05;;;;;;;35.39;41.67;98700.20;1604175;88;26106;-64
2022/08/25 11:12:20;;;;;;;16.87;4.97;;;;;;;35.65;41.34;98692.56;1605275;89;25708;-64
2022/08/25 11:14:52;;;;;;;19.67;5.30;;;;;;;35.63;41.26;98686.56;1605033;87;27496;-64
2022/08/25 11:17:43;;;;;;;17.45;5.42;;;;;;;35.73;40.34;98686.52;1604603;88;25696;-65
2022/08/25 11:20:18;;;;;;;21.65;5.80;;;;;;;35.60;40.15;98675.36;1604763;88;25632;-64
2022/08/25 11:23:25;;;;;;;18.30;5.40;;;;;;;35.75;40.59;98678.27;1605080;88;25763;-64
2022/08/25 11:25:58;;;;;;;14.80;4.95;;;;;;;35.89;41.66;98673.88;1605919;86;25667;-64
2022/08/25 11:28:50;;;;;;;16.07;5.12;;;;;;;36.50;39.60;98666.92;1616315;87;27495;-63
2022/08/25 11:31:19;;;;;;;16.02;5.03;;;;;;;36.66;38.91;98667.03;1616046;88;25925;-64
2022/08/25 11:33:46;;;;;;;19.30;5.50;;;;;;;36.59;40.53;98664.59;1589721;88;25727;-64
2022/08/25 11:36:32;;;;;;;18.98;5.25;;;;;;;36.99;39.34;98667.27;1616165;87;25739;-64
2022/08/25 11:39:22;;;;;;;16.02;4.80;;;;;;;36.78;39.74;98661.53;1616168;88;25467;-63
2022/08/25 11:42:27;;;;;;;17.42;5.12;;;;;;;36.90;39.67;98648.20;1615570;88;27535;-63
2022/08/25 11:45:45;;;;;;;16.70;5.42;;;;;;;36.62;38.66;98654.23;1616048;88;26022;-63
2022/08/25 11:48:34;;;;;;;24.25;5.30;;;;;;;35.71;39.05;98648.53;1616466;88;25554;-62
2022/08/25 11:51:06;;;;;;;20.32;4.92;;;;;;;35.21;39.78;98647.62;1616123;88;26549;-62
2022/08/25 11:53:43;;;;;;;20.37;5.42;;;;;;;35.15;40.78;98646.06;1616374;87;25619;-62
2022/08/25 11:56:32;;;;;;;18.27;5.62;;;;;;;35.62;39.97;98639.40;1591687;88;27639;-63
2022/08/25 11:58:58;;;;;;;18.50;5.53;;;;;;;35.61;39.04;98636.41;1614683;88;25724;-62
2022/08/25 12:01:49;;;;;;;27.05;6.85;;;;;;;35.62;39.70;98632.91;1615391;88;25740;-63
2022/08/25 12:04:40;;;;;;;21.95;5.40;;;;;;;35.31;40.67;98629.85;1614742;88;25753;-63
2022/08/25 12:07:13;;;;;;;18.07;5.12;;;;;;;34.93;41.08;98630.72;1612141;88;25693;-62
2022/08/25 12:10:06;;;;;;;15.28;4.83;;;;;;;34.84;41.19;98632.95;1609377;88;27492;-63
2022/08/25 12:12:44;;;;;;;18.25;5.12;;;;;;;34.76;40.10;98628.25;1615550;88;25741;-63
2022/08/25 12:15:43;;;;;;;15.53;5.03;;;;;;;34.62;40.56;98632.59;1615001;87;25750;-64
2022/08/25 12:18:21;;;;;;;;;;;;;;;34.53;41.53;98627.08;1617849;88;25792;-63
2022/08/25 12:21:01;;;;;;;19.32;5.20;;;;;;;34.28;41.43;98627.64;1614671;88;25740;-63
2022/08/25 12:23:44;;;;;;;19.40;5.50;;;;;;;33.99;41.90;98622.50;1611713;88;28018;-63
2022/08/25 12:26:31;;;;;;;18.57;5.10;;;;;;;34.11;42.10;98620.11;1609767;87;26493;-64
2022/08/25 12:29:20;;;;;;;21.50;4.90;;;;;;;33.98;41.79;98610.33;1578766;90;25752;-63
2022/08/25 12:32:13;;;;;;;16.82;5.08;;;;;;;34.01;42.33;98621.37;1499823;93;26604;-65
2022/08/25 12:35:12;;;;;;;17.75;4.97;;;;;;;34.61;39.77;98617.56;1505978;93;25938;-64
2022/08/25 12:38:03;;;;;;;;;;;;;;;34.96;40.79;98609.17;1502163;91;28143;-65
2022/08/25 12:40:49;;;;;;;21.77;5.95;;;;;;;35.71;39.06;98614.98;1503792;93;25851;-65
2022/08/25 12:43:23;;;;;;;17.90;4.67;;;;;;;35.90;37.74;98610.67;1503929;93;25939;-64
2022/08/25 12:45:53;;;;;;;19.70;4.62;;;;;;;35.54;37.89;98607.64;1507829;93;25975;-62
2022/08/25 12:48:33;;;;;;;19.37;4.62;;;;;;;35.45;37.80;98608.38;1501586;93;25766;-63
2022/08/25 12:51:11;;;;;;;21.25;5.22;;;;;;;35.40;38.14;98606.34;1501409;93;27397;-63
2022/08/25 12:54:00;;;;;;;16.25;4.10;;;;;;;35.50;39.30;98598.52;1501918;93;25786;-62
2022/08/25 12:56:43;;;;;;;18.90;4.78;;;;;;;36.03;37.08;98599.58;1503295;93;25880;-62
2022/08/25 12:59:20;;;;;;;16.87;4.15;;;;;;;36.06;37.10;98600.69;1512732;93;25768;-62
2022/08/25 13:02:25;;;;;;;18.40;4.20;;;;;;;36.11;35.44;98597.92;1510915;93;25738;-63
2022/08/25 13:05:47;;;;;;;11.00;3.75;;;;;;;35.91;35.55;98600.83;1512626;93;27560;-62
2022/08/25 13:08:56;;;;;;;16.10;4.75;;;;;;;36.08;34.36;98601.75;1515856;89;25916;-62
2022/08/25 13:11:49;;;;;;;15.90;4.30;;;;;;;35.86;36.03;98595.80;1583413;90;25801;-62
2022/08/25 13:14:36;;;;;;;18.07;4.20;;;;;;;36.25;35.46;98594.94;1587887;90;26314;-63
2022/08/25 13:17:02;;;;;;;15.53;4.17;;;;;;;36.47;34.68;98599.42;1589577;89;25858;-62
2022/08/25 13:19:30;;;;;;;15.58;4.00;;;;;;;36.77;34.17;98592.22;1588643;90;27410;-62
2022/08/25 13:22:01;;;;;;;13.03;3.40;;;;;;;36.82;34.11;98582.80;1594035;89;25605;-62
2022/08/25 13:24:32;;;;;;;20.15;4.70;;;;;;;36.94;32.80;98579.44;1594611;89;25797;-62
2022/08/25 13:27:04;;;;;;;20.92;4.53;;;;;;;36.71;33.26;98576.29;1592925;87;25870;-62
2022/08/25 13:29:34;;;;;;;17.55;4.50;;;;;;;36.56;33.65;98574.26;1624454;88;25698;-62
2022/08/25 13:32:08;;;;;;;12.50;4.00;;;;;;;36.66;34.25;98574.27;1629388;87;27396;-62
2022/08/25 13:34:39;;;;;;;15.40;4.67;;;;;;;36.92;34.10;98572.80;1630095;87;25493;-63
2022/08/25 13:37:29;;;;;;;13.62;3.92;;;;;;;36.28;33.91;98572.55;1630243;87;25532;-63
2022/08/25 13:40:25;;;;;;;12.88;4.17;;;;;;;36.22;33.97;98572.31;1630236;87;25741;-63
2022/08/25 13:43:04;;;;;;;18.30;4.10;;;;;;;36.03;34.01;98573.29;1630229;87;25660;-63
2022/08/25 13:45:36;;;;;;;16.42;4.50;;;;;;;35.56;34.57;98577.23;1629848;87;28188;-63
2022/08/25 13:48:03;;;;;;;18.67;4.05;;;;;;;35.11;35.21;98574.28;1630069;87;25443;-63
2022/08/25 13:50:37;;;;;;;16.20;3.90;;;;;;;34.64;35.62;98578.19;1630194;88;25526;-63
2022/08/25 13:53:18;;;;;;;20.17;3.98;;;;;;;34.39;36.34;98573.09;1630275;87;25643;-62
2022/08/25 13:55:54;;;;;;;14.70;3.90;;;;;;;34.50;35.84;98573.19;1628688;87;25445;-62
2022/08/25 13:58:35;;;;;;;19.70;3.80;;;;;;;34.32;35.20;98563.49;1615063;88;27494;-63
2022/08/25 14:01:24;;;;;;;18.25;4.15;;;;;;;34.18;35.88;98567.81;1626201;87;25709;-62
2022/08/25 14:03:55;;;;;;;20.85;4.95;;;;;;;33.79;36.83;98565.55;1628719;88;25728;-61
2022/08/25 14:06:27;;;;;;;16.95;4.65;;;;;;;33.30;37.78;98557.52;1628651;88;25912;-62
2022/08/25 14:09:05;;;;;;;14.50;4.33;;;;;;;33.25;38.54;98558.16;1629172;88;25660;-62
2022/08/25 14:11:56;;;;;;;18.65;4.55;;;;;;;33.20;38.80;98559.41;1629625;88;28939;-63
2022/08/25 14:14:29;;;;;;;22.98;5.97;;;;;;;32.95;39.12;98564.11;1629829;88;25547;-62
2022/08/25 14:17:08;;;;;;;19.75;5.22;;;;;;;32.55;37.17;98557.40;1629602;88;25655;-63
2022/08/25 14:19:39;;;;;;;22.37;4.62;;;;;;;32.13;37.56;98555.81;1629864;88;25806;-62
2022/08/25 14:22:05;;;;;;;18.07;4.30;;;;;;;31.90;38.93;98553.63;1627878;88;25498;-64
2022/08/25 14:24:35;;;;;;;20.25;4.25;;;;;;;31.80;39.35;98542.86;1629442;88;27530;-61
2022/08/25 14:27:02;;;;;;;13.68;4.15;;;;;;;31.73;40.14;98540.92;1632065;87;25772;-61
2022/08/25 14:29:30;;;;;;;20.02;4.33;;;;;;;31.61;38.97;98549.66;1646449;87;25668;-61
2022/08/25 14:31:59;;;;;;;18.27;4.20;;;;;;;31.37;40.29;98545.25;1646437;87;25786;-61
2022/08/25 14:34:35;;;;;;;15.13;4.50;;;;;;;31.26;40.19;98540.59;1646660;87;25707;-61
2022/08/25 14:37:12;;;;;;;15.68;4.42;;;;;;;31.01;40.44;98535.98;1646284;87;28341;-61
2022/08/25 14:39:39;;;;;;;15.20;4.10;;;;;;;30.90;41.64;98536.97;1645855;87;25928;-61
2022/08/25 14:42:07;;;;;;;13.93;4.67;;;;;;;30.95;41.57;98529.33;1646707;87;25655;-61
2022/08/25 14:44:34;;;;;;;20.02;5.53;;;;;;;30.94;41.77;98527.72;1646486;87;25698;-61
2022/08/25 14:47:02;;;;;;;20.97;5.15;;;;;;;30.79;42.88;98525.41;1646548;87;25687;-61
2022/08/25 14:49:32;;;;;;;17.27;4.72;;;;;;;30.78;42.84;98524.45;1646473;87;27405;-61
2022/08/25 14:52:19;;;;;;;18.73;4.65;;;;;;;30.83;43.70;98521.66;1646411;87;25723;-61
2022/08/25 14:54:47;;;;;;;16.07;5.10;;;;;;;30.74;44.10;98527.36;1646362;87;25512;-61
2022/08/25 14:57:13;;;;;;;22.85;5.30;;;;;;;30.62;44.55;98529.61;1646440;87;25745;-62
2022/08/25 14:59:40;;;;;;;17.57;4.70;;;;;;;30.64;44.79;98530.73;1646471;87;25674;-63
2022/08/25 15:02:08;;;;;;;17.73;4.67;;;;;;;30.58;45.12;98532.55;1646601;87;27487;-62
2022/08/25 15:04:36;;;;;;;15.13;4.12;;;;;;;30.46;45.16;98530.53;1646356;87;25756;-63
2022/08/25 15:09:06;;;;;;;16.35;4.40;;;;;;;30.42;43.74;98522.95;1646605;87;25714;-62
2022/08/25 15:09:32;;;;;;;;;;;;;;;30.38;42.78;98523.70;1648230;85;25610;-64
2022/08/25 15:12:00;;;;;;;16.37;4.87;;;;;;;30.37;43.16;98526.98;1646755;87;25501;-63
2022/08/25 15:14:26;;;;;;;20.32;4.92;;;;;;;30.40;44.12;98533.91;1646242;87;27437;-63
2022/08/25 15:16:56;;;;;;;16.48;6.08;;;;;;;30.38;44.85;98534.20;1646374;87;25480;-63
2022/08/25 15:19:26;;;;;;;11.60;4.35;;;;;;;30.32;45.87;98527.54;1646319;87;25667;-62
2022/08/25 15:21:53;;;;;;;16.93;5.28;;;;;;;30.30;46.61;98532.23;1646510;87;25769;-62
2022/08/25 15:24:23;;;;;;;17.75;5.30;;;;;;;30.21;47.11;98526.47;1646236;87;25649;-61
2022/08/25 15:26:52;;;;;;;;;;;;;;;30.14;47.21;98524.64;1649076;85;26910;-62
2022/08/25 15:29:19;;;;;;;12.68;4.85;;;;;;;30.03;47.80;98515.09;1620040;87;25715;-62
2022/08/25 15:31:46;;;;;;;21.25;4.90;;;;;;;30.01;47.79;98511.30;1618515;88;25727;-61
2022/08/25 15:34:14;;;;;;;16.57;5.35;;;;;;;29.97;47.85;98518.30;1618249;88;26113;-61
2022/08/25 15:36:41;;;;;;;17.35;5.65;;;;;;;29.88;47.72;98515.52;1618144;88;25645;-63
2022/08/25 15:39:09;;;;;;;16.23;4.95;;;;;;;29.84;48.23;98521.13;1618195;87;27472;-61
2022/08/25 15:41:36;;;;;;;19.62;5.12;;;;;;;29.78;49.20;98522.28;1618495;88;25706;-61
2022/08/25 15:44:06;;;;;;;25.05;5.42;;;;;;;29.65;50.35;98517.41;1618688;88;25511;-61
2022/08/25 15:46:35;;;;;;;16.12;5.30;;;;;;;29.59;49.80;98514.99;1618376;88;25713;-61
2022/08/25 15:49:01;;;;;;;16.97;4.95;;;;;;;29.60;50.33;98507.30;1618343;88;25825;-61
2022/08/25 15:51:28;;;;;;;16.40;4.70;;;;;;;29.55;49.72;98514.25;1615040;88;27445;-61
2022/08/25 15:53:56;;;;;;;19.60;4.90;;;;;;;29.50;48.78;98517.01;1612929;87;25705;-61
2022/08/25 15:56:24;;;;;;;24.23;5.00;;;;;;;29.44;49.28;98518.80;1614731;88;25772;-60
2022/08/25 15:58:52;;;;;;;18.70;5.00;;;;;;;29.45;49.01;98521.81;1613804;88;25768;-62
2022/08/25 16:01:23;;;;;;;23.65;5.58;;;;;;;29.44;49.76;98518.80;1614077;88;26283;-61
2022/08/25 16:03:50;;;;;;;15.88;5.22;;;;;;;29.33;50.55;98531.83;1614626;88;28218;-64
2022/08/25 16:06:17;;;;;;;19.17;5.42;;;;;;;29.27;50.96;98525.14;1614649;88;25722;-62
2022/08/25 16:08:45;;;;;;;17.23;4.95;;;;;;;29.19;51.41;98523.13;1613654;88;26309;-63
2022/08/25 16:11:31;;;;;;;19.32;5.10;;;;;;;29.22;51.81;98520.03;1614221;88;25807;-62
2022/08/25 16:13:57;;;;;;;19.62;5.28;;;;;;;29.24;52.15;98519.75;1613195;88;25514;-61
2022/08/25 16:16:27;;;;;;;20.08;5.55;;;;;;;29.24;52.27;98514.75;1612735;88;27320;-61
2022/08/25 16:18:57;;;;;;;15.95;5.00;;;;;;;29.24;52.48;98509.10;1613046;88;25518;-64
2022/08/25 16:21:33;;;;;;;20.27;5.83;;;;;;;29.18;52.50;98509.63;1609737;88;25925;-63
2022/08/25 16:24:03;;;;;;;15.75;5.70;;;;;;;29.18;53.08;98506.02;1610354;88;25679;-62
2022/08/25 16:26:30;;;;;;;;;;;;;;;29.11;53.34;98504.81;1616338;88;26070;-63
2022/08/25 16:28:57;;;;;;;18.32;5.50;;;;;;;28.96;53.57;98504.41;1613207;87;27509;-62
2022/08/25 16:31:25;;;;;;;21.95;6.00;;;;;;;28.85;53.82;98499.83;1613594;87;26346;-63
2022/08/25 16:33:53;;;;;;;22.20;5.47;;;;;;;28.78;53.93;98503.61;1613694;88;25736;-63
2022/08/25 16:36:23;;;;;;;18.10;5.33;;;;;;;28.76;54.21;98506.70;1613017;88;26207;-62
2022/08/25 16:38:51;;;;;;;24.65;6.20;;;;;;;28.67;54.78;98505.94;1613815;88;25469;-63